createdAt,value
2023-03-06T00:07:58.131Z,99549.22
2023-03-06T00:18:05.162Z,99543.69
2023-03-06T00:28:08.744Z,99537.28
2023-03-06T00:38:14.311Z,99526.91
2023-03-06T00:48:17.906Z,99523.09
2023-03-06T00:58:22.967Z,99512.06
2023-03-06T01:08:26.758Z,99503.38
2023-03-06T01:18:31.736Z,99486.72
2023-03-06T01:28:37.445Z,99470.69
2023-03-06T01:38:42.566Z,99452.28
2023-03-06T01:48:47.837Z,99449.03
2023-03-06T01:58:53.383Z,99428.19
2023-03-06T02:08:57.492Z,99418.88
2023-03-06T02:19:05.670Z,99420.63
2023-03-06T02:29:11.008Z,99414.19
2023-03-06T02:39:16.031Z,99412.16
2023-03-06T02:49:21.263Z,99405.59
2023-03-06T02:59:25.992Z,99381.91
2023-03-06T03:09:36.672Z,99382.75
2023-03-06T03:19:40.390Z,99384.50
2023-03-06T03:29:45.344Z,99379.00
2023-03-06T03:39:49.069Z,99377.97
2023-03-06T03:49:54.038Z,99372.25
2023-03-06T03:59:57.947Z,99366.28
2023-03-06T04:10:02.921Z,99350.06
2023-03-06T04:20:08.083Z,99345.09
2023-03-06T04:30:14.419Z,99333.41
2023-03-06T04:40:21.514Z,99318.38
2023-03-06T04:50:32.345Z,99320.41
2023-03-06T05:00:36.006Z,99311.63
2023-03-06T05:10:40.930Z,99306.81
2023-03-06T05:20:44.981Z,99301.09
2023-03-06T05:30:50.361Z,99312.22
2023-03-06T05:40:54.313Z,99299.44
2023-03-06T05:51:03.254Z,99299.59
2023-03-06T06:01:11.726Z,99295.16
2023-03-06T06:11:18.232Z,99297.22
2023-03-06T06:21:22.019Z,99296.81
2023-03-06T06:31:26.975Z,99297.53
2023-03-06T06:41:50.622Z,99290.75
2023-03-06T06:51:56.615Z,99289.38
2023-03-06T07:02:00.266Z,99292.69
2023-03-06T07:12:05.978Z,99299.78
2023-03-06T07:22:09.745Z,99306.00
2023-03-06T07:32:14.810Z,99300.31
2023-03-06T07:42:18.522Z,99291.44
2023-03-06T07:52:23.878Z,99294.84
2023-03-06T08:02:27.824Z,99295.25
2023-03-06T08:12:33.024Z,99286.31
2023-03-06T08:22:36.953Z,99290.75
2023-03-06T08:32:42.229Z,99283.00
2023-03-06T08:42:46.767Z,99279.50
2023-03-06T08:52:51.769Z,99286.59
2023-03-06T09:02:55.479Z,99295.09
2023-03-06T09:13:00.752Z,99284.72
2023-03-06T09:23:04.609Z,99308.06
2023-03-06T09:33:09.894Z,99321.50
2023-03-06T09:43:22.135Z,99338.75
2023-03-06T09:54:00.321Z,99326.66
2023-03-06T10:04:13.120Z,99314.56
2023-03-06T10:14:28.204Z,99310.41
2023-03-06T10:24:50.388Z,99302.09
2023-03-06T10:35:00.606Z,99303.06
2023-03-06T10:45:14.696Z,99300.19
2023-03-06T10:55:31.034Z,99296.28
2023-03-06T11:05:34.994Z,99291.81
2023-03-06T11:15:39.954Z,99279.34
2023-03-06T11:25:50.375Z,99276.78
2023-03-06T11:36:05.380Z,99278.25
2023-03-06T11:46:17.417Z,99274.59
2023-03-06T11:56:32.840Z,99254.66
2023-03-06T12:06:47.009Z,99239.13
2023-03-06T12:17:13.435Z,99212.34
2023-03-06T12:27:27.397Z,99196.41
2023-03-06T12:37:48.180Z,99197.91
2023-03-06T12:47:56.542Z,99189.13
2023-03-06T12:58:45.848Z,99184.25
2023-03-06T13:09:20.800Z,99174.22
2023-03-06T13:19:28.120Z,99175.53
2023-03-06T13:30:23.239Z,99169.19
2023-03-06T13:40:37.165Z,99167.69
2023-03-06T13:50:43.514Z,99161.78
2023-03-06T14:01:08.134Z,99159.88
2023-03-06T14:11:21.344Z,99159.75
2023-03-06T14:21:31.929Z,99151.69
2023-03-06T14:31:39.400Z,99149.88
2023-03-06T14:41:44.805Z,99143.25
2023-03-06T14:51:56.643Z,99139.13
2023-03-06T15:02:05.104Z,99121.28
2023-03-06T15:12:34.778Z,99124.94
2023-03-06T15:22:42.019Z,99125.34
2023-03-06T15:32:45.719Z,99124.72
2023-03-06T15:42:51.256Z,99128.53
2023-03-06T15:52:55.590Z,99118.81
2023-03-06T16:03:01.343Z,99136.53
2023-03-06T16:13:09.511Z,99128.72
2023-03-06T16:23:16.037Z,99136.81
2023-03-06T16:33:19.666Z,99137.25
2023-03-06T16:43:27.667Z,99144.38
2023-03-06T16:53:31.331Z,99142.69
2023-03-06T17:03:37.048Z,99149.50
2023-03-06T17:13:41.192Z,99151.97
2023-03-06T17:23:46.405Z,99160.97
2023-03-06T17:33:51.447Z,99163.50
2023-03-06T17:43:58.840Z,99165.94
2023-03-06T17:54:02.623Z,99188.03
2023-03-06T18:04:07.841Z,99188.75
2023-03-06T18:14:11.607Z,99181.28
2023-03-06T18:24:16.760Z,99176.34
2023-03-06T18:34:20.574Z,99178.56
2023-03-06T18:44:25.701Z,99166.56
2023-03-06T18:54:29.745Z,99174.09
2023-03-06T19:04:37.210Z,99174.03
2023-03-06T19:14:40.837Z,99173.63
2023-03-06T19:24:46.784Z,99172.72
2023-03-06T19:34:50.524Z,99176.34
2023-03-06T19:44:56.359Z,99177.94
2023-03-06T19:55:00.324Z,99163.50
2023-03-06T20:05:09.183Z,99168.25
2023-03-06T20:15:13.398Z,99150.66
2023-03-06T20:25:19.103Z,99149.22
2023-03-06T20:35:23.029Z,99159.19
2023-03-06T20:45:28.139Z,99161.25
2023-03-06T20:55:33.024Z,99166.59
2023-03-06T21:05:38.165Z,99168.00
2023-03-06T21:15:42.938Z,99156.09
2023-03-06T21:25:53.815Z,99148.19
2023-03-06T21:36:00.176Z,99141.78
2023-03-06T21:46:06.368Z,99134.78
2023-03-06T21:56:10.852Z,99123.91
2023-03-06T22:06:19.260Z,99116.47
2023-03-06T22:16:23.629Z,99105.28
2023-03-06T22:26:32.272Z,99105.19
2023-03-06T22:36:35.994Z,99099.06
2023-03-06T22:46:41.706Z,99079.91
2023-03-06T22:56:45.385Z,99083.13
2023-03-06T23:06:50.351Z,99078.19
2023-03-06T23:16:54.025Z,99059.06
2023-03-06T23:26:59.243Z,99051.94
2023-03-06T23:37:03.039Z,99045.13
2023-03-06T23:47:08.217Z,99045.16
2023-03-06T23:57:11.844Z,99043.88
